Time;durP1;ratioP1;P1;durP2;ratioP2;P2;SDS_P1;SDS_P2;PMS_P1;PMS_P2;Temp;Humidity;BMP_temperature;BMP_pressure;BME280_temperature;BME280_humidity;BME280_pressure;Samples;Min_cycle;Max_cycle;Signal;HPM_P1;HPM_P2
2023/12/31 00:01:12;;;;;;;1.40;1.30;;;10.30;99.90;;;;;;5032270;28;20189;-71
2023/12/31 00:03:45;;;;;;;2.65;1.63;;;10.40;99.90;;;;;;5036603;28;20312;-71
2023/12/31 00:06:13;;;;;;;1.23;1.13;;;10.50;99.90;;;;;;5033490;28;20188;-71
2023/12/31 00:08:40;;;;;;;2.00;1.50;;;10.60;99.90;;;;;;5036532;28;20205;-70
2023/12/31 00:11:09;;;;;;;1.40;1.10;;;10.60;99.90;;;;;;5052549;28;20288;-71
2023/12/31 00:13:36;;;;;;;1.50;1.40;;;10.80;99.90;;;;;;5037973;28;20206;-72
2023/12/31 00:16:03;;;;;;;1.45;1.35;;;10.80;99.90;;;;;;5037354;28;20174;-72
2023/12/31 00:18:30;;;;;;;1.70;1.50;;;10.80;99.90;;;;;;5035047;28;20193;-71
2023/12/31 00:20:56;;;;;;;1.58;1.40;;;10.90;99.90;;;;;;5036461;28;20182;-70
2023/12/31 00:23:22;;;;;;;2.15;1.60;;;10.90;99.90;;;;;;5036104;28;20231;-71
2023/12/31 00:25:47;;;;;;;2.30;1.85;;;10.90;99.90;;;;;;5026422;28;20201;-72
2023/12/31 00:28:15;;;;;;;1.77;1.52;;;10.90;99.90;;;;;;5022588;28;20198;-71
2023/12/31 00:30:41;;;;;;;2.33;1.75;;;10.80;99.90;;;;;;5035665;28;20185;-71
2023/12/31 00:33:06;;;;;;;1.95;1.67;;;10.90;99.90;;;;;;5033558;28;20249;-67
2023/12/31 00:35:32;;;;;;;2.10;1.67;;;10.80;99.90;;;;;;5045488;28;20394;-66
2023/12/31 00:37:58;;;;;;;2.08;1.80;;;10.80;99.90;;;;;;5036374;28;20174;-70
2023/12/31 00:40:25;;;;;;;1.65;1.42;;;10.80;99.90;;;;;;5052294;28;20186;-71
2023/12/31 00:42:53;;;;;;;1.73;1.48;;;10.70;99.90;;;;;;5035153;28;20201;-71
2023/12/31 00:45:19;;;;;;;2.20;1.60;;;10.70;99.90;;;;;;5036195;28;20178;-72
2023/12/31 00:47:47;;;;;;;1.92;1.42;;;10.70;99.90;;;;;;5035771;28;20174;-70
2023/12/31 00:50:12;;;;;;;1.83;1.52;;;10.70;99.90;;;;;;5037474;28;20184;-70
2023/12/31 00:52:40;;;;;;;1.50;1.40;;;10.60;99.90;;;;;;5031891;28;20265;-70
2023/12/31 00:55:06;;;;;;;2.00;1.30;;;10.60;99.90;;;;;;5049724;28;20205;-71
2023/12/31 00:57:34;;;;;;;2.05;1.65;;;10.60;99.90;;;;;;5035335;28;20166;-70
2023/12/31 01:00:05;;;;;;;2.20;1.30;;;10.60;99.90;;;;;;5028363;28;20209;-72
2023/12/31 01:02:31;;;;;;;2.13;1.50;;;10.60;99.90;;;;;;5037231;28;20185;-69
2023/12/31 01:04:57;;;;;;;1.65;1.40;;;10.70;99.90;;;;;;5036675;28;20182;-71
2023/12/31 01:07:25;;;;;;;1.83;1.30;;;10.80;99.90;;;;;;5035773;28;20245;-71
2023/12/31 01:09:52;;;;;;;1.75;1.50;;;10.70;99.90;;;;;;5035360;28;20197;-70
2023/12/31 01:12:21;;;;;;;1.58;1.38;;;10.70;99.90;;;;;;5034921;28;20246;-71
2023/12/31 01:14:47;;;;;;;1.58;1.27;;;10.70;99.90;;;;;;5023972;28;20198;-71
2023/12/31 01:17:12;;;;;;;1.75;1.42;;;10.60;99.90;;;;;;5031936;28;20213;-69
2023/12/31 01:19:38;;;;;;;1.35;1.25;;;10.60;99.90;;;;;;5037684;28;20169;-72
2023/12/31 01:22:04;;;;;;;1.77;1.52;;;10.60;99.90;;;;;;5040877;28;20166;-71
2023/12/31 01:24:31;;;;;;;1.92;1.38;;;10.60;99.90;;;;;;5037003;28;20194;-72
2023/12/31 01:26:57;;;;;;;2.33;1.40;;;10.60;99.90;;;;;;5031600;28;20175;-71
2023/12/31 01:29:23;;;;;;;1.80;1.42;;;10.60;99.90;;;;;;5039596;28;20243;-69
2023/12/31 01:31:49;;;;;;;1.50;1.40;;;10.60;99.90;;;;;;5039211;28;20262;-71
2023/12/31 01:34:15;;;;;;;1.77;1.52;;;10.60;99.90;;;;;;5034743;28;20194;-70
2023/12/31 01:36:42;;;;;;;2.22;1.70;;;10.60;99.90;;;;;;5030864;28;20185;-70
2023/12/31 01:39:10;;;;;;;1.83;1.50;;;10.60;99.90;;;;;;5039823;28;20185;-69
2023/12/31 01:41:36;;;;;;;1.80;1.42;;;10.50;99.90;;;;;;5033278;28;20175;-70
2023/12/31 01:44:03;;;;;;;1.58;1.48;;;10.60;99.90;;;;;;5050255;28;20190;-71
2023/12/31 01:46:31;;;;;;;1.85;1.60;;;10.60;99.90;;;;;;5032943;28;20270;-71
2023/12/31 01:48:59;;;;;;;1.73;1.63;;;10.60;99.90;;;;;;5034311;28;20205;-70
2023/12/31 01:51:26;;;;;;;1.63;1.40;;;10.50;99.90;;;;;;5034560;28;20178;-71
2023/12/31 01:53:55;;;;;;;1.83;1.42;;;10.60;99.90;;;;;;5034806;28;20209;-71
2023/12/31 01:56:21;;;;;;;1.73;1.40;;;10.60;99.90;;;;;;5051490;28;20197;-71
2023/12/31 01:58:53;;;;;;;2.05;1.85;;;10.60;99.90;;;;;;5032400;28;20247;-68
2023/12/31 02:01:24;;;;;;;2.20;1.60;;;10.60;99.90;;;;;;5034045;28;20201;-71
2023/12/31 02:03:52;;;;;;;1.67;1.33;;;10.60;99.90;;;;;;5039616;28;20258;-71
2023/12/31 02:06:17;;;;;;;2.15;1.95;;;10.70;99.90;;;;;;5034526;28;20174;-72
2023/12/31 02:08:43;;;;;;;2.75;1.60;;;10.60;99.90;;;;;;5038700;28;20209;-70
2023/12/31 02:11:09;;;;;;;1.70;1.42;;;10.60;99.90;;;;;;5034825;28;20185;-71
2023/12/31 02:13:37;;;;;;;1.52;1.30;;;10.60;99.90;;;;;;5037461;28;20211;-71
2023/12/31 02:16:03;;;;;;;2.50;1.50;;;10.60;99.90;;;;;;5034094;28;20539;-69
2023/12/31 02:18:29;;;;;;;2.10;1.40;;;10.60;99.90;;;;;;5033404;28;20190;-70
2023/12/31 02:20:57;;;;;;;1.77;1.30;;;10.70;99.90;;;;;;5033825;28;20308;-71
2023/12/31 02:23:22;;;;;;;1.50;1.30;;;10.70;99.90;;;;;;5034429;28;20269;-67
2023/12/31 02:26:16;;;;;;;2.17;1.55;;;10.60;99.90;;;;;;5033015;28;20269;-73
2023/12/31 02:28:41;;;;;;;2.05;1.58;;;10.70;99.90;;;;;;5033666;28;20212;-71
2023/12/31 02:31:07;;;;;;;1.73;1.45;;;10.70;99.90;;;;;;5029285;28;20171;-71
2023/12/31 02:33:35;;;;;;;1.92;1.48;;;10.70;99.90;;;;;;5014999;28;20186;-68
2023/12/31 02:36:01;;;;;;;3.08;1.48;;;10.70;99.90;;;;;;5033453;28;20198;-69
2023/12/31 02:38:26;;;;;;;2.22;1.70;;;10.70;99.90;;;;;;5033512;28;20182;-68
2023/12/31 02:40:54;;;;;;;2.63;1.48;;;10.80;99.90;;;;;;5033781;28;20201;-71
2023/12/31 02:43:20;;;;;;;2.05;1.45;;;10.70;99.90;;;;;;5027271;28;20197;-71
2023/12/31 02:45:48;;;;;;;2.90;1.98;;;10.70;99.90;;;;;;5026500;28;20206;-70
2023/12/31 02:48:14;;;;;;;2.13;1.45;;;10.70;99.90;;;;;;5037176;28;20239;-69
2023/12/31 02:50:39;;;;;;;2.20;1.40;;;10.60;99.90;;;;;;5032974;28;20217;-69
2023/12/31 02:53:05;;;;;;;3.20;1.70;;;10.60;99.90;;;;;;5039683;28;20189;-72
2023/12/31 02:55:31;;;;;;;2.65;1.80;;;10.60;99.90;;;;;;5059204;28;20201;-69
2023/12/31 02:57:56;;;;;;;1.90;1.58;;;10.60;99.90;;;;;;5034197;28;20180;-67
2023/12/31 03:00:22;;;;;;;3.80;2.00;;;10.60;99.90;;;;;;5033255;28;20182;-69
2023/12/31 03:02:48;;;;;;;2.20;1.30;;;10.60;99.90;;;;;;5030484;28;20245;-68
2023/12/31 03:05:13;;;;;;;2.55;1.75;;;10.50;99.90;;;;;;5027933;28;20177;-69
2023/12/31 03:07:41;;;;;;;2.10;1.50;;;10.60;99.90;;;;;;5029820;28;20246;-70
2023/12/31 03:10:10;;;;;;;1.52;1.42;;;10.50;99.90;;;;;;5044957;28;20181;-69
2023/12/31 03:12:35;;;;;;;2.25;1.63;;;10.50;99.90;;;;;;5050308;28;20178;-70
2023/12/31 03:15:01;;;;;;;2.60;1.60;;;10.50;99.90;;;;;;5033129;28;20213;-69
2023/12/31 03:17:28;;;;;;;1.92;1.60;;;10.50;99.90;;;;;;5026741;28;20195;-69
2023/12/31 03:19:54;;;;;;;3.10;1.90;;;10.50;99.90;;;;;;5032831;28;20177;-69
2023/12/31 03:22:22;;;;;;;1.98;1.65;;;10.50;99.90;;;;;;5033364;28;20181;-69
2023/12/31 03:24:50;;;;;;;3.33;2.08;;;10.50;99.90;;;;;;5031823;28;20189;-69
2023/12/31 03:27:20;;;;;;;2.22;1.73;;;10.50;99.90;;;;;;5033728;28;20178;-70
2023/12/31 03:29:49;;;;;;;2.17;1.70;;;10.50;99.90;;;;;;5021884;28;20261;-69
2023/12/31 03:32:19;;;;;;;1.90;1.60;;;10.50;99.90;;;;;;5032668;28;20323;-69
2023/12/31 03:34:47;;;;;;;2.25;1.50;;;10.50;99.90;;;;;;5033603;28;20267;-70
2023/12/31 03:37:15;;;;;;;1.80;1.58;;;10.50;99.90;;;;;;5032948;28;20231;-69
2023/12/31 03:39:41;;;;;;;1.92;1.40;;;10.50;99.90;;;;;;5028602;28;20181;-65
2023/12/31 03:42:07;;;;;;;2.22;1.50;;;10.50;99.90;;;;;;5036642;28;20181;-66
2023/12/31 03:44:32;;;;;;;1.75;1.42;;;10.50;99.90;;;;;;5033489;28;20236;-69
2023/12/31 03:46:58;;;;;;;2.03;1.50;;;10.50;99.90;;;;;;5030387;28;20175;-70
2023/12/31 03:49:26;;;;;;;2.40;1.55;;;10.50;99.90;;;;;;5033946;28;20205;-67
2023/12/31 03:51:54;;;;;;;1.55;1.45;;;10.50;99.90;;;;;;5028887;28;20204;-69
2023/12/31 03:54:20;;;;;;;2.30;1.60;;;10.50;99.90;;;;;;5032811;28;20202;-70
2023/12/31 03:56:50;;;;;;;3.15;1.40;;;10.60;99.90;;;;;;5031522;28;20191;-62
2023/12/31 03:59:15;;;;;;;2.42;1.50;;;10.50;99.90;;;;;;5032191;28;20194;-62
2023/12/31 04:01:56;;;;;;;2.60;1.50;;;10.60;99.90;;;;;;5031065;28;20180;-62
2023/12/31 04:04:23;;;;;;;1.80;1.23;;;10.60;99.90;;;;;;5036212;28;20169;-62
2023/12/31 04:06:48;;;;;;;2.65;1.42;;;10.60;99.90;;;;;;5033806;28;20181;-62
2023/12/31 04:09:14;;;;;;;1.75;1.30;;;10.60;99.90;;;;;;5033644;28;20277;-62
2023/12/31 04:11:40;;;;;;;1.80;1.20;;;10.60;99.90;;;;;;5029122;28;20189;-62
2023/12/31 04:14:05;;;;;;;2.28;1.20;;;10.60;99.90;;;;;;5021254;28;20214;-62
2023/12/31 04:16:31;;;;;;;1.65;1.20;;;10.60;99.90;;;;;;5035025;28;20266;-62
2023/12/31 04:18:57;;;;;;;1.58;1.20;;;10.60;99.90;;;;;;5024183;28;20198;-62
2023/12/31 04:21:22;;;;;;;2.55;1.30;;;10.60;99.90;;;;;;5036560;28;20213;-62
2023/12/31 04:23:48;;;;;;;2.05;1.42;;;10.70;99.90;;;;;;5032356;28;20240;-62
2023/12/31 04:26:16;;;;;;;2.13;1.25;;;10.70;99.90;;;;;;5036741;28;20185;-62
2023/12/31 04:28:41;;;;;;;2.00;1.40;;;10.70;99.90;;;;;;5045754;28;20208;-63
2023/12/31 04:31:09;;;;;;;2.08;1.23;;;10.70;99.90;;;;;;5037277;28;20190;-63
2023/12/31 04:33:35;;;;;;;1.85;1.38;;;10.80;99.90;;;;;;5036348;28;20265;-63
2023/12/31 04:36:07;;;;;;;2.05;1.40;;;10.70;99.90;;;;;;5036224;28;20208;-62
2023/12/31 04:38:33;;;;;;;1.92;1.50;;;10.70;99.90;;;;;;5053534;28;20224;-62
2023/12/31 04:41:01;;;;;;;2.75;1.40;;;10.70;99.90;;;;;;5044118;28;20174;-62
2023/12/31 04:43:26;;;;;;;2.13;1.40;;;10.70;99.90;;;;;;5027495;28;20200;-63
2023/12/31 04:45:52;;;;;;;1.80;1.40;;;10.70;99.90;;;;;;5016919;28;20270;-63
2023/12/31 04:48:20;;;;;;;1.70;1.15;;;10.70;99.90;;;;;;5032030;28;20186;-64
2023/12/31 04:50:48;;;;;;;3.03;1.40;;;10.80;99.90;;;;;;5033723;28;20194;-62
2023/12/31 04:53:20;;;;;;;2.10;1.40;;;10.70;99.90;;;;;;5036095;28;20186;-62
2023/12/31 04:55:48;;;;;;;1.80;1.30;;;10.80;99.90;;;;;;5045688;28;20197;-62
2023/12/31 04:58:17;;;;;;;1.42;1.33;;;10.70;99.90;;;;;;5036099;28;20197;-62
2023/12/31 05:00:43;;;;;;;1.80;1.30;;;10.80;99.90;;;;;;5036064;28;20185;-62
2023/12/31 05:03:08;;;;;;;1.63;1.30;;;10.70;99.90;;;;;;5034760;28;20194;-63
2023/12/31 05:05:34;;;;;;;1.90;1.35;;;10.70;99.90;;;;;;5035085;28;20186;-63
2023/12/31 05:07:59;;;;;;;2.30;1.20;;;10.70;99.90;;;;;;5040063;28;20204;-63
2023/12/31 05:10:25;;;;;;;1.45;1.27;;;10.70;99.90;;;;;;5027343;28;20207;-63
2023/12/31 05:12:51;;;;;;;1.75;1.35;;;10.70;99.90;;;;;;5032504;28;20182;-62
2023/12/31 05:15:16;;;;;;;1.63;1.38;;;10.70;99.90;;;;;;5030953;28;20261;-63
2023/12/31 05:17:44;;;;;;;2.47;1.30;;;10.70;99.90;;;;;;5032737;28;20508;-62
2023/12/31 05:20:12;;;;;;;1.70;1.30;;;10.70;99.90;;;;;;5033562;28;20170;-63
2023/12/31 05:22:40;;;;;;;1.50;1.30;;;10.70;99.90;;;;;;5035240;28;20263;-63
2023/12/31 05:25:06;;;;;;;1.50;1.40;;;10.70;99.90;;;;;;5035676;28;20188;-63
2023/12/31 05:27:35;;;;;;;2.08;1.30;;;10.70;99.90;;;;;;5049496;28;20173;-63
2023/12/31 05:30:00;;;;;;;1.90;1.10;;;10.70;99.90;;;;;;5056593;28;20178;-62
2023/12/31 05:32:28;;;;;;;1.70;1.20;;;10.70;99.90;;;;;;5035861;28;20184;-63
2023/12/31 05:34:54;;;;;;;1.55;1.23;;;10.70;99.90;;;;;;5035338;28;20202;-62
2023/12/31 05:37:19;;;;;;;1.20;1.08;;;10.70;99.90;;;;;;5047700;28;20166;-63
2023/12/31 05:39:45;;;;;;;1.30;1.00;;;10.70;99.90;;;;;;5034688;28;20429;-63
2023/12/31 05:42:11;;;;;;;2.05;1.40;;;10.80;99.90;;;;;;5035380;28;20209;-63
2023/12/31 05:44:39;;;;;;;2.08;1.13;;;10.80;99.90;;;;;;5034691;28;20210;-62
2023/12/31 05:47:05;;;;;;;2.70;1.23;;;10.80;99.90;;;;;;5031046;28;20209;-62
2023/12/31 05:49:35;;;;;;;1.63;1.23;;;10.80;99.90;;;;;;5036516;28;20201;-62
2023/12/31 05:52:05;;;;;;;3.58;1.30;;;10.80;99.90;;;;;;5031887;28;20206;-63
2023/12/31 05:54:30;;;;;;;1.50;1.10;;;10.80;99.90;;;;;;5035082;28;20233;-63
2023/12/31 05:56:56;;;;;;;2.67;1.20;;;10.90;99.90;;;;;;5035362;28;20178;-63
2023/12/31 05:59:22;;;;;;;2.92;1.15;;;10.80;99.90;;;;;;5038965;28;20448;-63
2023/12/31 06:01:53;;;;;;;1.92;1.35;;;10.90;99.90;;;;;;5034802;28;20243;-63
2023/12/31 06:04:21;;;;;;;1.30;1.20;;;10.90;99.90;;;;;;5035387;28;20280;-63
2023/12/31 06:06:46;;;;;;;2.35;1.20;;;10.80;99.90;;;;;;5034454;28;20268;-63
2023/12/31 06:09:12;;;;;;;1.40;1.30;;;10.90;99.90;;;;;;5034648;28;20220;-63
2023/12/31 06:11:40;;;;;;;1.65;1.20;;;10.90;99.90;;;;;;5034644;28;20184;-62
2023/12/31 06:14:07;;;;;;;1.85;1.30;;;10.90;99.90;;;;;;5034763;28;20206;-64
2023/12/31 06:16:32;;;;;;;1.70;1.20;;;11.00;99.90;;;;;;5034742;28;20284;-63
2023/12/31 06:19:00;;;;;;;1.40;1.08;;;10.90;99.90;;;;;;5051288;28;20281;-63
2023/12/31 06:21:26;;;;;;;2.10;1.27;;;11.00;99.90;;;;;;5033362;28;20190;-62
2023/12/31 06:23:52;;;;;;;1.80;1.10;;;11.00;99.90;;;;;;5034507;28;20269;-63
2023/12/31 06:26:17;;;;;;;1.10;1.00;;;11.00;99.90;;;;;;5041142;28;20189;-63
2023/12/31 06:28:43;;;;;;;1.45;1.15;;;11.00;99.90;;;;;;5034029;28;20206;-63
2023/12/31 06:31:09;;;;;;;2.17;1.33;;;11.10;99.90;;;;;;5033702;28;20184;-63
2023/12/31 06:33:37;;;;;;;1.67;1.10;;;11.00;99.90;;;;;;5034079;28;20190;-63
2023/12/31 06:36:03;;;;;;;1.55;1.30;;;11.10;99.90;;;;;;5030096;28;20206;-62
2023/12/31 06:38:29;;;;;;;1.85;1.10;;;11.10;99.90;;;;;;5047657;28;20179;-62
2023/12/31 06:40:54;;;;;;;1.77;1.20;;;11.10;99.90;;;;;;5032560;28;20179;-63
2023/12/31 06:43:25;;;;;;;1.40;1.10;;;11.10;99.90;;;;;;5034370;28;20198;-61
2023/12/31 06:45:50;;;;;;;1.77;1.10;;;11.10;99.90;;;;;;5033882;28;20227;-62
2023/12/31 06:48:16;;;;;;;1.35;1.00;;;11.10;99.90;;;;;;5038675;28;20170;-63
2023/12/31 06:50:42;;;;;;;1.30;1.10;;;11.10;99.90;;;;;;5041682;28;20293;-63
2023/12/31 06:53:12;;;;;;;1.88;1.20;;;11.10;99.90;;;;;;5032153;28;20186;-62
2023/12/31 06:55:38;;;;;;;1.50;1.13;;;11.20;99.90;;;;;;5033304;28;20205;-62
2023/12/31 06:58:03;;;;;;;1.52;1.20;;;11.10;99.90;;;;;;5044751;28;20178;-63
2023/12/31 07:00:35;;;;;;;1.52;1.25;;;11.00;99.90;;;;;;5018513;28;20171;-62
2023/12/31 07:03:03;;;;;;;1.45;1.20;;;11.10;99.90;;;;;;5041089;28;20227;-62
2023/12/31 07:05:29;;;;;;;1.27;1.10;;;11.10;99.90;;;;;;5031410;28;20366;-63
2023/12/31 07:07:54;;;;;;;1.42;1.27;;;11.10;99.90;;;;;;5033430;28;20193;-62
2023/12/31 07:10:21;;;;;;;1.40;1.10;;;11.10;99.90;;;;;;5033597;28;20260;-62
2023/12/31 07:12:47;;;;;;;1.98;1.10;;;11.10;99.90;;;;;;5033108;28;20170;-62
2023/12/31 07:15:15;;;;;;;1.40;1.13;;;11.10;99.90;;;;;;5034708;28;20236;-63
2023/12/31 07:17:43;;;;;;;2.33;1.27;;;11.10;99.90;;;;;;5032428;28;20213;-62
2023/12/31 07:20:13;;;;;;;1.38;1.13;;;11.00;99.90;;;;;;5033683;28;20162;-63
2023/12/31 07:22:39;;;;;;;1.33;1.10;;;11.00;99.90;;;;;;5032083;28;20198;-63
2023/12/31 07:25:06;;;;;;;1.60;1.08;;;11.00;99.90;;;;;;5026364;28;20225;-63
2023/12/31 07:27:34;;;;;;;1.10;1.00;;;11.00;99.90;;;;;;5033195;28;20232;-62
2023/12/31 07:30:02;;;;;;;1.95;1.30;;;11.00;99.90;;;;;;5046658;28;20236;-63
2023/12/31 07:32:27;;;;;;;1.88;1.27;;;11.00;99.90;;;;;;5039070;28;20193;-62
2023/12/31 07:34:53;;;;;;;1.73;1.30;;;11.00;99.90;;;;;;5048248;28;20205;-63
2023/12/31 07:37:21;;;;;;;1.80;1.20;;;11.00;99.90;;;;;;5037937;28;20186;-62
2023/12/31 07:39:47;;;;;;;2.83;1.20;;;11.00;99.90;;;;;;5036896;28;20174;-63
2023/12/31 07:42:15;;;;;;;1.95;1.25;;;11.00;99.90;;;;;;5036923;28;20178;-63
2023/12/31 07:44:41;;;;;;;1.42;1.10;;;11.00;99.90;;;;;;5024106;28;20197;-63
2023/12/31 07:47:08;;;;;;;1.65;1.35;;;11.00;99.90;;;;;;5037129;28;20173;-62
2023/12/31 07:49:34;;;;;;;1.73;1.40;;;11.00;99.90;;;;;;5021861;28;20187;-62
2023/12/31 07:52:02;;;;;;;1.65;1.30;;;10.90;99.90;;;;;;5037865;28;20206;-63
2023/12/31 07:54:30;;;;;;;1.80;1.23;;;11.00;99.90;;;;;;5036189;28;20343;-63
2023/12/31 07:56:55;;;;;;;1.20;1.02;;;11.00;99.90;;;;;;5041055;28;20341;-63
2023/12/31 07:59:21;;;;;;;1.70;1.30;;;11.00;99.90;;;;;;5038713;28;20189;-63
2023/12/31 08:01:49;;;;;;;1.45;1.30;;;11.00;99.90;;;;;;5037167;28;20283;-63
2023/12/31 08:04:14;;;;;;;1.45;1.33;;;11.10;99.90;;;;;;5037482;28;20201;-63
2023/12/31 08:06:40;;;;;;;1.60;1.30;;;11.10;99.90;;;;;;5037561;28;20278;-63
2023/12/31 08:09:10;;;;;;;2.50;1.30;;;11.10;99.90;;;;;;5033637;28;20178;-63
2023/12/31 08:11:36;;;;;;;1.75;1.40;;;11.20;99.90;;;;;;5045843;28;20178;-64
2023/12/31 08:14:02;;;;;;;1.80;1.40;;;11.10;99.90;;;;;;5033359;28;20202;-63
2023/12/31 08:16:30;;;;;;;2.00;1.23;;;11.10;99.90;;;;;;5032970;28;20175;-63
2023/12/31 08:18:56;;;;;;;1.23;1.13;;;11.10;99.90;;;;;;5036908;28;20185;-62
2023/12/31 08:21:22;;;;;;;1.65;1.23;;;11.10;99.90;;;;;;5032605;28;20171;-62
2023/12/31 08:23:48;;;;;;;1.40;1.15;;;11.20;99.90;;;;;;5032102;28;20180;-63
2023/12/31 08:26:15;;;;;;;2.15;1.30;;;11.20;99.90;;;;;;5036540;28;20170;-63
2023/12/31 08:28:41;;;;;;;2.33;1.33;;;11.20;99.90;;;;;;5033395;28;20221;-62
2023/12/31 08:31:14;;;;;;;1.98;1.30;;;11.20;99.90;;;;;;5049818;28;20178;-63
2023/12/31 08:33:40;;;;;;;2.40;1.65;;;11.30;99.90;;;;;;5041336;28;20232;-64
2023/12/31 08:36:08;;;;;;;2.08;1.40;;;11.30;99.90;;;;;;5046408;28;20411;-63
2023/12/31 08:38:36;;;;;;;1.70;1.20;;;11.30;99.90;;;;;;5030581;28;20285;-62
2023/12/31 08:41:04;;;;;;;2.00;1.33;;;11.30;99.90;;;;;;5041513;28;20189;-63
2023/12/31 08:43:32;;;;;;;1.52;1.42;;;11.30;99.90;;;;;;5036512;28;20174;-63
2023/12/31 08:45:58;;;;;;;1.55;1.45;;;11.40;99.90;;;;;;5034491;28;20237;-62
2023/12/31 08:48:26;;;;;;;3.05;1.83;;;11.40;99.90;;;;;;5047417;28;20206;-62
2023/12/31 08:50:52;;;;;;;2.58;1.63;;;11.50;99.90;;;;;;5051357;28;20205;-64
2023/12/31 08:53:21;;;;;;;1.92;1.55;;;11.50;99.90;;;;;;5035650;28;20284;-63
2023/12/31 08:55:48;;;;;;;2.13;1.70;;;11.50;99.90;;;;;;5047675;28;20205;-63
2023/12/31 08:58:14;;;;;;;4.43;1.85;;;11.60;99.90;;;;;;5035532;28;20525;-64
2023/12/31 09:00:40;;;;;;;2.22;1.70;;;11.70;99.90;;;;;;5035174;28;20310;-63
2023/12/31 09:03:10;;;;;;;2.00;1.80;;;11.70;99.90;;;;;;5028622;28;20185;-65
2023/12/31 09:05:36;;;;;;;2.13;1.50;;;11.70;99.90;;;;;;5033552;28;20193;-64
2023/12/31 09:08:05;;;;;;;1.90;1.70;;;11.80;99.90;;;;;;5035432;28;20177;-63
2023/12/31 09:10:33;;;;;;;2.15;1.65;;;11.90;99.90;;;;;;5035933;28;20247;-63
2023/12/31 09:12:59;;;;;;;2.75;1.50;;;11.90;99.90;;;;;;5035913;28;20192;-64
2023/12/31 09:15:27;;;;;;;2.60;1.90;;;12.00;99.90;;;;;;5031429;28;20205;-63
2023/12/31 09:17:52;;;;;;;2.45;2.05;;;12.00;99.90;;;;;;5053238;28;20251;-63
2023/12/31 09:20:18;;;;;;;2.75;2.17;;;12.00;99.90;;;;;;5035088;28;20174;-63
2023/12/31 09:22:44;;;;;;;2.95;2.05;;;12.10;99.90;;;;;;5040240;28;20237;-63
2023/12/31 09:25:09;;;;;;;2.38;1.83;;;12.10;99.90;;;;;;5037421;28;20268;-64
2023/12/31 09:27:35;;;;;;;4.03;2.00;;;12.10;99.90;;;;;;5048482;28;20184;-64
2023/12/31 09:30:01;;;;;;;2.20;1.85;;;12.10;99.90;;;;;;5035472;28;20224;-65
2023/12/31 09:32:26;;;;;;;2.58;2.10;;;12.10;99.90;;;;;;5034195;28;20178;-64
2023/12/31 09:34:52;;;;;;;2.13;1.80;;;12.20;99.90;;;;;;5034885;28;20213;-64
2023/12/31 09:37:20;;;;;;;2.75;1.80;;;12.20;99.90;;;;;;5032525;28;20202;-63
2023/12/31 09:39:47;;;;;;;2.10;1.90;;;12.20;99.90;;;;;;5060827;28;20182;-63
2023/12/31 09:42:15;;;;;;;2.42;1.90;;;12.20;99.90;;;;;;5035996;28;20174;-64
2023/12/31 09:44:42;;;;;;;2.25;1.80;;;12.30;99.90;;;;;;5040829;28;20174;-64
2023/12/31 09:47:14;;;;;;;2.65;2.13;;;12.30;99.90;;;;;;5037516;28;20174;-64
2023/12/31 09:49:48;;;;;;;2.22;2.03;;;12.30;99.90;;;;;;5035386;28;20198;-65
2023/12/31 09:52:17;;;;;;;3.40;2.10;;;12.40;99.90;;;;;;5035528;28;20173;-64
2023/12/31 09:54:43;;;;;;;3.03;2.72;;;12.40;99.90;;;;;;5035283;28;20467;-64
2023/12/31 09:57:12;;;;;;;3.45;2.97;;;12.50;99.90;;;;;;5033875;28;20178;-64
2023/12/31 09:59:39;;;;;;;3.70;2.25;;;12.50;99.90;;;;;;5035821;28;20202;-63
2023/12/31 10:02:06;;;;;;;2.63;2.20;;;12.60;99.90;;;;;;5034491;28;20267;-64
2023/12/31 10:04:32;;;;;;;4.05;2.30;;;12.70;99.90;;;;;;5035338;28;20184;-64
2023/12/31 10:06:59;;;;;;;2.67;2.03;;;12.70;99.90;;;;;;5035082;28;20177;-65
2023/12/31 10:09:30;;;;;;;3.53;2.00;;;12.70;99.90;;;;;;5034929;28;20221;-63
2023/12/31 10:11:56;;;;;;;2.60;2.00;;;12.70;99.90;;;;;;5034627;28;20176;-63
2023/12/31 10:14:22;;;;;;;2.28;1.80;;;12.70;99.90;;;;;;5034346;28;20197;-64
2023/12/31 10:16:50;;;;;;;2.03;1.83;;;12.70;99.90;;;;;;5034575;28;20185;-66
2023/12/31 10:19:16;;;;;;;2.53;2.10;;;12.70;99.90;;;;;;5035497;28;20158;-64
2023/12/31 10:21:43;;;;;;;2.40;2.00;;;12.70;99.90;;;;;;5034780;28;20194;-64
2023/12/31 10:24:09;;;;;;;2.35;1.98;;;12.70;99.90;;;;;;5032026;28;20182;-65
2023/12/31 10:26:36;;;;;;;2.35;2.10;;;12.80;99.90;;;;;;5039820;28;20253;-65
2023/12/31 10:29:07;;;;;;;2.65;1.98;;;12.80;99.90;;;;;;5030871;28;20194;-64
2023/12/31 10:31:33;;;;;;;2.70;2.03;;;12.80;99.90;;;;;;5031542;28;20272;-64
2023/12/31 10:34:15;;;;;;;2.67;2.05;;;12.80;99.90;;;;;;5048658;28;20245;-63
2023/12/31 10:36:44;;;;;;;1.90;1.70;;;12.80;99.90;;;;;;5034470;28;20204;-64
2023/12/31 10:39:10;;;;;;;1.83;1.60;;;12.80;99.90;;;;;;5050919;28;20177;-63
2023/12/31 10:41:37;;;;;;;1.85;1.58;;;12.80;99.90;;;;;;5050881;28;20202;-64
2023/12/31 10:44:11;;;;;;;1.75;1.40;;;12.80;99.90;;;;;;5051386;28;20170;-64
2023/12/31 10:46:41;;;;;;;2.00;1.50;;;12.80;99.90;;;;;;5051338;28;20185;-64
2023/12/31 10:49:10;;;;;;;2.38;1.30;;;12.80;99.90;;;;;;5051057;28;20205;-64
2023/12/31 10:51:44;;;;;;;2.75;1.20;;;12.80;99.90;;;;;;5036794;28;20182;-63
2023/12/31 10:54:21;;;;;;;2.70;1.20;;;12.80;99.90;;;;;;5034204;28;20373;-64
2023/12/31 10:56:50;;;;;;;2.50;1.00;;;12.80;99.90;;;;;;5018209;28;20345;-64
2023/12/31 10:59:17;;;;;;;1.95;1.02;;;12.70;99.90;;;;;;5034014;28;20182;-64
2023/12/31 11:01:44;;;;;;;2.78;0.90;;;12.70;99.90;;;;;;5033767;28;20225;-64
2023/12/31 11:04:11;;;;;;;2.53;1.10;;;12.70;99.90;;;;;;5034358;28;20182;-65
2023/12/31 11:06:38;;;;;;;2.15;1.15;;;12.70;99.90;;;;;;5034570;28;20178;-65
2023/12/31 11:09:05;;;;;;;1.83;1.10;;;12.60;99.90;;;;;;5052987;28;20193;-64
2023/12/31 11:11:33;;;;;;;1.63;0.95;;;12.60;99.90;;;;;;5041902;28;20194;-65
2023/12/31 11:14:01;;;;;;;1.30;0.75;;;12.60;99.90;;;;;;5034313;28;20209;-62
2023/12/31 11:16:51;;;;;;;2.20;0.90;;;12.60;99.90;;;;;;5028973;28;20237;-65
2023/12/31 11:19:53;;;;;;;2.10;1.00;;;12.60;99.90;;;;;;5030916;28;20477;-64
2023/12/31 11:22:59;;;;;;;2.28;0.90;;;12.60;99.90;;;;;;5014540;28;20174;-63
2023/12/31 11:25:30;;;;;;;0.82;0.43;;;12.60;99.90;;;;;;5014438;28;20182;-63
2023/12/31 11:27:57;;;;;;;1.05;0.60;;;12.50;99.90;;;;;;5014469;28;20336;-63
2023/12/31 11:30:51;;;;;;;1.65;0.80;;;12.50;99.90;;;;;;5014884;28;20213;-63
2023/12/31 11:33:39;;;;;;;2.08;0.90;;;12.50;99.90;;;;;;5014225;28;20233;-63
2023/12/31 11:36:11;;;;;;;2.25;0.70;;;12.50;99.90;;;;;;5031110;28;20228;-64
2023/12/31 11:39:14;;;;;;;1.15;0.70;;;12.40;99.90;;;;;;5034021;28;20182;-64
2023/12/31 11:41:47;;;;;;;1.73;1.00;;;12.40;99.90;;;;;;5044558;28;20260;-64
2023/12/31 11:44:39;;;;;;;1.20;0.80;;;12.40;99.90;;;;;;5033978;28;20286;-64
2023/12/31 11:47:22;;;;;;;1.70;0.82;;;12.40;99.90;;;;;;5033940;28;20185;-64
2023/12/31 11:49:52;;;;;;;1.73;0.93;;;12.40;99.90;;;;;;5050234;28;20186;-64
2023/12/31 11:52:31;;;;;;;1.63;0.90;;;12.40;99.90;;;;;;5049818;28;20209;-64
2023/12/31 11:55:01;;;;;;;1.45;0.70;;;12.40;99.90;;;;;;5033485;28;20209;-64
2023/12/31 11:57:30;;;;;;;1.40;0.60;;;12.30;99.90;;;;;;5032030;28;20201;-62
2023/12/31 11:59:55;;;;;;;1.17;0.60;;;12.30;99.90;;;;;;5048436;28;20213;-70
2023/12/31 12:02:27;;;;;;;0.82;0.50;;;12.30;99.90;;;;;;5033760;28;20244;-68
2023/12/31 12:05:03;;;;;;;1.85;0.60;;;12.30;99.90;;;;;;5050574;28;20225;-69
2023/12/31 12:07:31;;;;;;;1.45;0.80;;;12.40;99.90;;;;;;5053851;28;20207;-70
2023/12/31 12:09:59;;;;;;;1.40;0.60;;;12.40;99.90;;;;;;5053722;28;20173;-73
2023/12/31 12:12:25;;;;;;;1.05;0.60;;;12.40;99.90;;;;;;5053677;28;20222;-74
2023/12/31 12:14:51;;;;;;;1.02;0.43;;;12.40;99.90;;;;;;5046501;28;20194;-71
2023/12/31 12:17:17;;;;;;;1.30;0.70;;;12.40;99.90;;;;;;5033379;28;20297;-72
2023/12/31 12:19:42;;;;;;;0.90;0.60;;;12.50;99.90;;;;;;5034112;28;20166;-72
2023/12/31 12:22:11;;;;;;;0.77;0.57;;;12.50;99.90;;;;;;5037221;28;20170;-71
2023/12/31 12:24:36;;;;;;;1.58;0.47;;;12.40;99.90;;;;;;5036888;28;20202;-71
2023/12/31 12:27:05;;;;;;;2.03;0.80;;;12.50;99.90;;;;;;5036875;28;20181;-69
2023/12/31 12:29:37;;;;;;;0.95;0.68;;;12.40;99.90;;;;;;5037005;28;20170;-70
2023/12/31 12:32:05;;;;;;;1.50;0.80;;;12.50;99.90;;;;;;5035747;28;20263;-66
2023/12/31 12:34:30;;;;;;;1.55;0.70;;;12.40;99.90;;;;;;5036668;28;20190;-70
2023/12/31 12:36:58;;;;;;;1.88;0.60;;;12.40;99.90;;;;;;5032642;28;20184;-70
2023/12/31 12:39:23;;;;;;;1.88;0.70;;;12.40;99.90;;;;;;5045461;28;20170;-71
2023/12/31 12:41:53;;;;;;;0.63;0.40;;;12.40;99.90;;;;;;5036832;28;20268;-71
2023/12/31 12:44:21;;;;;;;1.27;0.47;;;12.40;99.90;;;;;;5036658;28;20180;-70
2023/12/31 12:46:49;;;;;;;0.82;0.30;;;12.40;99.90;;;;;;5036765;28;20182;-71
2023/12/31 12:49:15;;;;;;;1.23;0.50;;;12.40;99.90;;;;;;5036483;28;20189;-65
2023/12/31 12:51:44;;;;;;;1.42;0.50;;;12.40;99.90;;;;;;5036811;28;20194;-70